createdAt,value
2022-10-05T00:00:38.025Z,975.72
2022-10-05T00:10:38.150Z,975.73
2022-10-05T00:20:38.334Z,975.73
2022-10-05T00:30:38.557Z,975.82
2022-10-05T00:40:38.714Z,975.78
2022-10-05T00:50:39.045Z,975.85
2022-10-05T01:00:39.107Z,975.81
2022-10-05T01:10:39.595Z,975.80
2022-10-05T01:20:39.449Z,975.73
2022-10-05T01:30:39.669Z,975.68
2022-10-05T01:40:39.835Z,975.70
2022-10-05T01:50:40.038Z,975.68
2022-10-05T02:00:40.406Z,975.64
2022-10-05T02:10:40.384Z,975.44
2022-10-05T02:20:40.599Z,975.43
2022-10-05T02:30:40.701Z,975.46
2022-10-05T02:40:40.872Z,975.51
2022-10-05T02:50:41.075Z,975.47
2022-10-05T03:00:41.298Z,975.35
2022-10-05T03:10:41.505Z,975.17
2022-10-05T03:20:41.676Z,975.30
2022-10-05T03:30:41.915Z,975.46
2022-10-05T03:40:42.069Z,975.47
2022-10-05T03:50:42.294Z,975.40
2022-10-05T04:00:43.106Z,975.29
2022-10-05T04:10:42.664Z,975.21
2022-10-05T04:20:43.304Z,975.04
2022-10-05T04:30:42.968Z,974.92
2022-10-05T04:40:43.134Z,974.86
2022-10-05T04:50:43.479Z,974.98
2022-10-05T05:00:43.573Z,974.95
2022-10-05T05:10:43.770Z,974.99
2022-10-05T05:20:43.945Z,975.27
2022-10-05T05:30:44.249Z,975.35
2022-10-05T05:40:44.621Z,975.51
2022-10-05T05:50:44.617Z,975.60
2022-10-05T06:00:44.693Z,975.82
2022-10-05T06:10:44.928Z,975.75
2022-10-05T06:20:45.141Z,975.84
2022-10-05T06:30:45.405Z,975.91
2022-10-05T06:40:45.472Z,975.88
2022-10-05T06:50:46.045Z,976.10
2022-10-05T07:00:45.965Z,976.13
2022-10-05T07:10:46.291Z,976.18
2022-10-05T07:20:49.211Z,976.12
2022-10-05T07:30:46.577Z,976.12
2022-10-05T07:40:46.734Z,976.09
2022-10-05T07:50:46.770Z,976.12
2022-10-05T08:00:46.899Z,976.17
2022-10-05T08:10:47.097Z,976.26
2022-10-05T08:20:47.245Z,976.27
2022-10-05T08:30:47.496Z,976.27
2022-10-05T08:40:47.784Z,976.24
2022-10-05T08:50:47.778Z,976.02
2022-10-05T09:00:47.928Z,975.82
2022-10-05T09:10:48.120Z,975.85
2022-10-05T09:20:48.262Z,975.84
2022-10-05T09:30:48.516Z,975.70
2022-10-05T09:40:48.553Z,975.81
2022-10-05T09:50:48.753Z,975.78
2022-10-05T10:00:55.621Z,975.66
2022-10-05T10:10:50.314Z,975.55
2022-10-05T10:20:49.354Z,975.55
2022-10-05T10:30:49.475Z,975.46
2022-10-05T10:40:49.580Z,975.44
2022-10-05T10:50:49.888Z,975.30
2022-10-05T11:00:49.795Z,975.27
2022-10-05T11:10:49.981Z,974.92
2022-10-05T11:20:50.118Z,974.88
2022-10-05T11:30:51.264Z,974.80
2022-10-05T11:40:50.471Z,974.71
2022-10-05T11:50:50.655Z,974.65
2022-10-05T12:00:50.789Z,974.58
2022-10-05T12:10:50.969Z,974.42
2022-10-05T12:20:51.127Z,974.38
2022-10-05T12:30:51.353Z,974.26
2022-10-05T12:40:51.688Z,974.13
2022-10-05T12:50:51.681Z,974.21
2022-10-05T13:00:51.931Z,974.26
2022-10-05T13:10:52.042Z,974.14
2022-10-05T13:20:52.241Z,974.17
2022-10-05T13:30:52.327Z,974.08
2022-10-05T13:40:52.469Z,974.11
2022-10-05T13:50:52.646Z,974.05
2022-10-05T14:00:52.789Z,973.92
2022-10-05T14:10:53.294Z,973.88
2022-10-05T14:20:53.134Z,973.87
2022-10-05T14:30:56.884Z,973.78
2022-10-05T14:40:54.722Z,973.62
2022-10-05T14:50:53.687Z,973.54
2022-10-05T15:00:53.868Z,973.52
2022-10-05T15:10:54.069Z,973.51
2022-10-05T15:20:54.201Z,973.69
2022-10-05T15:30:54.438Z,973.63
2022-10-05T15:40:54.519Z,973.72
2022-10-05T15:50:54.697Z,973.73
2022-10-05T16:00:54.958Z,973.85
2022-10-05T16:10:55.058Z,973.99
2022-10-05T16:20:55.269Z,974.14
2022-10-05T16:30:55.410Z,974.20
2022-10-05T16:40:59.646Z,974.31
2022-10-05T16:50:56.705Z,974.53
2022-10-05T17:00:55.882Z,974.58
2022-10-05T17:10:56.089Z,974.73
2022-10-05T17:20:56.220Z,974.80
2022-10-05T17:30:56.835Z,974.90
2022-10-05T17:40:56.564Z,975.00
2022-10-05T17:50:56.749Z,975.10
2022-10-05T18:00:56.902Z,975.05
2022-10-05T18:10:57.206Z,975.12
2022-10-05T18:20:57.241Z,975.13
2022-10-05T18:30:57.523Z,975.19
2022-10-05T18:40:57.594Z,975.19
2022-10-05T18:50:58.007Z,975.20
2022-10-05T19:00:57.939Z,975.39
2022-10-05T19:10:58.136Z,975.57
2022-10-05T19:20:58.518Z,975.79
2022-10-05T19:30:58.857Z,975.77
2022-10-05T19:40:58.766Z,976.04
2022-10-05T19:50:59.177Z,976.07
2022-10-05T20:00:58.983Z,976.29
2022-10-05T20:10:59.309Z,976.36
2022-10-05T20:20:59.363Z,976.63
2022-10-05T20:30:59.589Z,976.83
2022-10-05T20:40:59.643Z,977.07
2022-10-05T20:50:59.820Z,977.21
2022-10-05T21:01:00.167Z,977.38
2022-10-05T21:11:00.125Z,977.54
2022-10-05T21:21:02.345Z,977.59
2022-10-05T21:31:00.411Z,977.56
2022-10-05T21:41:00.544Z,977.69
2022-10-05T21:51:00.739Z,977.80
2022-10-05T22:01:01.482Z,977.90
2022-10-05T22:11:01.035Z,978.03
2022-10-05T22:21:01.176Z,978.20
2022-10-05T22:31:01.360Z,978.23
2022-10-05T22:41:01.509Z,978.31
2022-10-05T22:51:01.708Z,978.22
2022-10-05T23:01:02.594Z,978.19
2022-10-05T23:11:02.015Z,978.25
2022-10-05T23:21:02.153Z,978.38
2022-10-05T23:31:02.381Z,978.42
2022-10-05T23:41:02.461Z,978.46
2022-10-05T23:51:02.638Z,978.55
